TimeEET,TemperatureF,Dew PointF,Humidity,Sea Level PressureIn,VisibilityMPH,Wind Direction,Wind SpeedMPH,Gust SpeedMPH,PrecipitationIn,Events,Conditions,WindDirDegrees,DateUTC
12:50 AM,33.8,32.0,93,30.04,6.2,East,2.3,-,N/A,,Scattered Clouds,90,2012-11-26 22:50:00
1:50 AM,30.2,28.4,93,30.04,6.2,Variable,2.3,-,N/A,,Scattered Clouds,0,2012-11-26 23:50:00
2:00 AM,30,28,90,,6,East,2.3,,,,Partly Cloudy,100,2012-11-27 00:00:00
2:50 AM,30.2,28.4,93,30.04,6.2,Variable,2.3,-,N/A,,Scattered Clouds,0,2012-11-27 00:50:00
3:50 AM,28.4,28.4,100,30.04,6.2,ENE,3.5,-,N/A,,Scattered Clouds,70,2012-11-27 01:50:00
4:50 AM,28.4,28.4,100,30.04,6.2,ENE,3.5,-,N/A,,Scattered Clouds,70,2012-11-27 02:50:00
5:50 AM,28.4,28.4,100,30.06,6.2,ENE,1.2,-,N/A,,Partly Cloudy,60,2012-11-27 03:50:00
6:50 AM,30.2,28.4,93,30.09,-9999.0,ENE,3.5,-,N/A,,Clear,60,2012-11-27 04:50:00
7:50 AM,39.2,33.8,81,30.09,-9999.0,East,2.3,-,N/A,,Clear,90,2012-11-27 05:50:00
8:00 AM,40,33,69,,6,East,2.3,,,,,90,2012-11-27 06:00:00
8:50 AM,42.8,32.0,66,30.09,6.2,Variable,2.3,-,N/A,,Partly Cloudy,0,2012-11-27 06:50:00
9:50 AM,44.6,32.0,61,30.09,6.2,WSW,4.6,-,N/A,,Partly Cloudy,250,2012-11-27 07:50:00
10:50 AM,44.6,30.2,57,30.09,6.2,West,5.8,-,N/A,,Partly Cloudy,260,2012-11-27 08:50:00
11:50 AM,46.4,30.2,53,30.09,6.2,West,6.9,-,N/A,,Partly Cloudy,280,2012-11-27 09:50:00
12:50 PM,46.4,24.8,43,30.06,6.2,WNW,5.8,-,N/A,,Partly Cloudy,290,2012-11-27 10:50:00
1:50 PM,46.4,24.8,43,30.06,6.2,NW,5.8,-,N/A,,Partly Cloudy,320,2012-11-27 11:50:00
2:00 PM,46,24,29,,7,NW,5.8,,,,Scattered Clouds,320,2012-11-27 12:00:00
2:50 PM,44.6,23.0,43,30.09,6.2,NNW,4.6,-,N/A,,Partly Cloudy,340,2012-11-27 12:50:00
3:50 PM,42.8,23.0,46,30.09,6.2,East,2.3,-,N/A,,Partly Cloudy,90,2012-11-27 13:50:00
4:50 PM,37.4,26.6,65,30.12,6.2,SSE,4.6,-,N/A,,Scattered Clouds,150,2012-11-27 14:50:00
5:50 PM,35.6,30.2,81,30.12,3.7,East,2.3,-,N/A,,Scattered Clouds,100,2012-11-27 15:50:00
6:50 PM,32.0,26.6,80,30.15,3.7,ENE,4.6,-,N/A,,Scattered Clouds,60,2012-11-27 16:50:00
7:50 PM,32.0,26.6,80,30.15,6.2,East,2.3,-,N/A,,Scattered Clouds,80,2012-11-27 17:50:00
8:00 PM,31,27,78,,7,East,2.3,,,,Partly Cloudy,80,2012-11-27 18:00:00
8:50 PM,30.2,24.8,80,30.15,6.2,ENE,3.5,-,N/A,,Scattered Clouds,70,2012-11-27 18:50:00
9:50 PM,28.4,26.6,93,30.18,6.2,NE,2.3,-,N/A,,Scattered Clouds,50,2012-11-27 19:50:00
10:50 PM,28.4,26.6,93,30.18,6.2,ENE,4.6,-,N/A,,Scattered Clouds,60,2012-11-27 20:50:00
11:50 PM,32.0,28.4,87,30.18,6.2,Variable,2.3,-,N/A,,Scattered Clouds,0,2012-11-27 21:50:00